sensor_id;sensor_type;location;lat;lon;timestamp;P1;durP1;ratioP1;P2;durP2;ratioP2
34900;SDS011;21112;51.976;5.660;2024-03-22T00:01:17;37.38;;;13.18;;
34900;SDS011;21112;51.976;5.660;2024-03-22T00:03:45;36.60;;;14.05;;
34900;SDS011;21112;51.976;5.660;2024-03-22T00:06:10;40.70;;;14.27;;
34900;SDS011;21112;51.976;5.660;2024-03-22T00:08:38;34.67;;;13.18;;
34900;SDS011;21112;51.976;5.660;2024-03-22T00:11:08;41.97;;;15.32;;
34900;SDS011;21112;51.976;5.660;2024-03-22T00:13:34;39.85;;;14.32;;
34900;SDS011;21112;51.976;5.660;2024-03-22T00:16:00;41.97;;;15.10;;
34900;SDS011;21112;51.976;5.660;2024-03-22T00:18:27;34.30;;;12.15;;
34900;SDS011;21112;51.976;5.660;2024-03-22T00:20:52;38.33;;;14.48;;
34900;SDS011;21112;51.976;5.660;2024-03-22T00:23:19;38.92;;;14.38;;
34900;SDS011;21112;51.976;5.660;2024-03-22T00:25:44;40.70;;;14.68;;
34900;SDS011;21112;51.976;5.660;2024-03-22T00:28:13;37.13;;;13.27;;
34900;SDS011;21112;51.976;5.660;2024-03-22T00:30:39;35.28;;;13.38;;
34900;SDS011;21112;51.976;5.660;2024-03-22T00:33:05;39.17;;;13.75;;
34900;SDS011;21112;51.976;5.660;2024-03-22T00:35:31;35.63;;;14.13;;
34900;SDS011;21112;51.976;5.660;2024-03-22T00:37:58;34.50;;;14.55;;
34900;SDS011;21112;51.976;5.660;2024-03-22T00:40:25;41.55;;;14.73;;
34900;SDS011;21112;51.976;5.660;2024-03-22T00:42:52;38.17;;;13.68;;
34900;SDS011;21112;51.976;5.660;2024-03-22T00:45:19;36.00;;;14.50;;
34900;SDS011;21112;51.976;5.660;2024-03-22T00:47:46;37.65;;;15.45;;
34900;SDS011;21112;51.976;5.660;2024-03-22T00:50:11;40.72;;;14.25;;
34900;SDS011;21112;51.976;5.660;2024-03-22T00:52:38;40.47;;;14.88;;
34900;SDS011;21112;51.976;5.660;2024-03-22T00:55:04;45.42;;;15.18;;
34900;SDS011;21112;51.976;5.660;2024-03-22T00:57:31;37.75;;;14.18;;
34900;SDS011;21112;51.976;5.660;2024-03-22T00:59:57;33.78;;;13.35;;
34900;SDS011;21112;51.976;5.660;2024-03-22T01:02:25;40.90;;;14.38;;
34900;SDS011;21112;51.976;5.660;2024-03-22T01:04:51;43.15;;;14.75;;
34900;SDS011;21112;51.976;5.660;2024-03-22T01:07:17;42.97;;;15.15;;
34900;SDS011;21112;51.976;5.660;2024-03-22T01:09:43;40.17;;;14.70;;
34900;SDS011;21112;51.976;5.660;2024-03-22T01:12:10;43.13;;;14.75;;
34900;SDS011;21112;51.976;5.660;2024-03-22T01:14:36;40.25;;;16.25;;
34900;SDS011;21112;51.976;5.660;2024-03-22T01:17:02;41.20;;;14.48;;
34900;SDS011;21112;51.976;5.660;2024-03-22T01:19:30;42.80;;;14.82;;
34900;SDS011;21112;51.976;5.660;2024-03-22T01:21:57;37.85;;;14.30;;
34900;SDS011;21112;51.976;5.660;2024-03-22T01:24:22;41.30;;;14.57;;
34900;SDS011;21112;51.976;5.660;2024-03-22T01:26:49;42.03;;;14.30;;
34900;SDS011;21112;51.976;5.660;2024-03-22T01:29:14;41.10;;;15.70;;
34900;SDS011;21112;51.976;5.660;2024-03-22T01:31:41;38.45;;;14.93;;
34900;SDS011;21112;51.976;5.660;2024-03-22T01:34:07;39.95;;;15.35;;
34900;SDS011;21112;51.976;5.660;2024-03-22T01:36:35;41.60;;;15.40;;
34900;SDS011;21112;51.976;5.660;2024-03-22T01:39:01;36.53;;;14.50;;
34900;SDS011;21112;51.976;5.660;2024-03-22T01:41:27;36.40;;;14.18;;
34900;SDS011;21112;51.976;5.660;2024-03-22T01:43:53;37.17;;;14.93;;
34900;SDS011;21112;51.976;5.660;2024-03-22T01:46:20;42.97;;;15.93;;
34900;SDS011;21112;51.976;5.660;2024-03-22T01:48:46;35.25;;;14.25;;
34900;SDS011;21112;51.976;5.660;2024-03-22T01:51:12;40.00;;;15.43;;
34900;SDS011;21112;51.976;5.660;2024-03-22T01:53:40;35.10;;;13.38;;
34900;SDS011;21112;51.976;5.660;2024-03-22T01:58:33;34.83;;;12.88;;
34900;SDS011;21112;51.976;5.660;2024-03-22T02:00:59;41.97;;;15.32;;
34900;SDS011;21112;51.976;5.660;2024-03-22T02:03:25;41.95;;;15.00;;
34900;SDS011;21112;51.976;5.660;2024-03-22T02:05:52;39.03;;;14.27;;
34900;SDS011;21112;51.976;5.660;2024-03-22T02:08:17;41.13;;;14.80;;
34900;SDS011;21112;51.976;5.660;2024-03-22T02:10:46;40.58;;;15.35;;
34900;SDS011;21112;51.976;5.660;2024-03-22T02:13:12;38.92;;;14.95;;
34900;SDS011;21112;51.976;5.660;2024-03-22T02:15:38;38.33;;;14.50;;
34900;SDS011;21112;51.976;5.660;2024-03-22T02:18:04;43.22;;;14.35;;
34900;SDS011;21112;51.976;5.660;2024-03-22T02:20:31;41.28;;;14.45;;
34900;SDS011;21112;51.976;5.660;2024-03-22T02:22:56;41.20;;;14.77;;
34900;SDS011;21112;51.976;5.660;2024-03-22T02:25:25;40.22;;;14.45;;
34900;SDS011;21112;51.976;5.660;2024-03-22T02:27:51;40.60;;;14.57;;
34900;SDS011;21112;51.976;5.660;2024-03-22T02:30:17;38.70;;;13.93;;
34900;SDS011;21112;51.976;5.660;2024-03-22T02:32:43;34.80;;;14.23;;
34900;SDS011;21112;51.976;5.660;2024-03-22T02:35:10;40.75;;;14.75;;
34900;SDS011;21112;51.976;5.660;2024-03-22T02:37:36;34.72;;;14.30;;
34900;SDS011;21112;51.976;5.660;2024-03-22T02:40:03;41.85;;;14.88;;
34900;SDS011;21112;51.976;5.660;2024-03-22T02:42:31;40.30;;;14.85;;
34900;SDS011;21112;51.976;5.660;2024-03-22T02:44:57;40.67;;;14.75;;
34900;SDS011;21112;51.976;5.660;2024-03-22T02:47:23;36.90;;;13.63;;
34900;SDS011;21112;51.976;5.660;2024-03-22T02:49:50;38.20;;;14.25;;
34900;SDS011;21112;51.976;5.660;2024-03-22T02:52:15;33.75;;;14.63;;
34900;SDS011;21112;51.976;5.660;2024-03-22T02:54:42;41.45;;;14.90;;
34900;SDS011;21112;51.976;5.660;2024-03-22T02:57:08;38.95;;;14.68;;
34900;SDS011;21112;51.976;5.660;2024-03-22T02:59:36;37.42;;;14.88;;
34900;SDS011;21112;51.976;5.660;2024-03-22T03:02:02;37.63;;;14.32;;
34900;SDS011;21112;51.976;5.660;2024-03-22T03:04:28;32.70;;;14.73;;
34900;SDS011;21112;51.976;5.660;2024-03-22T03:06:54;35.35;;;13.60;;
34900;SDS011;21112;51.976;5.660;2024-03-22T03:09:21;33.42;;;13.55;;
34900;SDS011;21112;51.976;5.660;2024-03-22T03:11:47;33.83;;;13.82;;
34900;SDS011;21112;51.976;5.660;2024-03-22T03:14:13;33.35;;;13.93;;
34900;SDS011;21112;51.976;5.660;2024-03-22T03:16:41;30.17;;;12.93;;
34900;SDS011;21112;51.976;5.660;2024-03-22T03:19:07;33.08;;;13.48;;
34900;SDS011;21112;51.976;5.660;2024-03-22T03:21:33;36.08;;;13.85;;
34900;SDS011;21112;51.976;5.660;2024-03-22T03:24:00;33.00;;;13.32;;
34900;SDS011;21112;51.976;5.660;2024-03-22T03:26:26;34.40;;;14.05;;
34900;SDS011;21112;51.976;5.660;2024-03-22T03:28:52;32.67;;;13.02;;
34900;SDS011;21112;51.976;5.660;2024-03-22T03:31:20;36.72;;;13.95;;
34900;SDS011;21112;51.976;5.660;2024-03-22T03:33:48;32.45;;;13.55;;
34900;SDS011;21112;51.976;5.660;2024-03-22T03:36:13;41.63;;;16.15;;
34900;SDS011;21112;51.976;5.660;2024-03-22T03:38:40;38.10;;;14.55;;
34900;SDS011;21112;51.976;5.660;2024-03-22T03:41:06;34.67;;;13.80;;
34900;SDS011;21112;51.976;5.660;2024-03-22T03:43:33;31.90;;;13.70;;
34900;SDS011;21112;51.976;5.660;2024-03-22T03:45:59;35.83;;;14.35;;
34900;SDS011;21112;51.976;5.660;2024-03-22T03:48:26;39.53;;;14.75;;
34900;SDS011;21112;51.976;5.660;2024-03-22T03:50:53;35.70;;;13.73;;
34900;SDS011;21112;51.976;5.660;2024-03-22T03:53:20;34.50;;;12.77;;
34900;SDS011;21112;51.976;5.660;2024-03-22T03:55:46;32.53;;;13.48;;
34900;SDS011;21112;51.976;5.660;2024-03-22T03:58:13;36.78;;;15.00;;
34900;SDS011;21112;51.976;5.660;2024-03-22T04:00:39;30.33;;;12.73;;
34900;SDS011;21112;51.976;5.660;2024-03-22T04:03:05;35.63;;;12.90;;
34900;SDS011;21112;51.976;5.660;2024-03-22T04:05:31;44.55;;;14.60;;
34900;SDS011;21112;51.976;5.660;2024-03-22T04:07:59;35.92;;;14.50;;
34900;SDS011;21112;51.976;5.660;2024-03-22T04:10:25;33.65;;;14.40;;
34900;SDS011;21112;51.976;5.660;2024-03-22T04:12:52;42.92;;;14.45;;
34900;SDS011;21112;51.976;5.660;2024-03-22T04:15:17;39.17;;;15.00;;
34900;SDS011;21112;51.976;5.660;2024-03-22T04:17:44;33.35;;;13.63;;
34900;SDS011;21112;51.976;5.660;2024-03-22T04:20:10;32.97;;;14.52;;
34900;SDS011;21112;51.976;5.660;2024-03-22T04:22:38;40.22;;;14.45;;
34900;SDS011;21112;51.976;5.660;2024-03-22T04:25:06;35.72;;;13.38;;
34900;SDS011;21112;51.976;5.660;2024-03-22T04:27:35;39.35;;;13.35;;
34900;SDS011;21112;51.976;5.660;2024-03-22T04:30:01;39.70;;;14.10;;
34900;SDS011;21112;51.976;5.660;2024-03-22T04:32:30;31.63;;;13.07;;
34900;SDS011;21112;51.976;5.660;2024-03-22T04:34:56;31.48;;;13.25;;
34900;SDS011;21112;51.976;5.660;2024-03-22T04:37:23;35.63;;;14.75;;
34900;SDS011;21112;51.976;5.660;2024-03-22T04:39:50;36.60;;;14.95;;
34900;SDS011;21112;51.976;5.660;2024-03-22T04:42:18;34.00;;;14.27;;
34900;SDS011;21112;51.976;5.660;2024-03-22T04:44:45;39.80;;;15.90;;
34900;SDS011;21112;51.976;5.660;2024-03-22T04:47:11;34.97;;;13.63;;
34900;SDS011;21112;51.976;5.660;2024-03-22T04:49:37;27.20;;;12.57;;
34900;SDS011;21112;51.976;5.660;2024-03-22T04:52:05;35.47;;;13.50;;
34900;SDS011;21112;51.976;5.660;2024-03-22T04:54:31;34.80;;;12.68;;
34900;SDS011;21112;51.976;5.660;2024-03-22T04:56:58;38.83;;;14.20;;
34900;SDS011;21112;51.976;5.660;2024-03-22T04:59:26;31.73;;;13.40;;
34900;SDS011;21112;51.976;5.660;2024-03-22T05:04:18;37.85;;;13.60;;
34900;SDS011;21112;51.976;5.660;2024-03-22T05:06:45;32.08;;;12.40;;
34900;SDS011;21112;51.976;5.660;2024-03-22T05:09:11;33.17;;;12.45;;
34900;SDS011;21112;51.976;5.660;2024-03-22T05:11:38;29.50;;;11.85;;
34900;SDS011;21112;51.976;5.660;2024-03-22T05:14:03;32.70;;;14.63;;
34900;SDS011;21112;51.976;5.660;2024-03-22T05:16:32;26.90;;;10.45;;
34900;SDS011;21112;51.976;5.660;2024-03-22T05:18:57;31.50;;;13.23;;
34900;SDS011;21112;51.976;5.660;2024-03-22T05:21:24;30.48;;;11.88;;
34900;SDS011;21112;51.976;5.660;2024-03-22T05:23:49;35.53;;;12.98;;
34900;SDS011;21112;51.976;5.660;2024-03-22T05:26:16;25.90;;;11.35;;
34900;SDS011;21112;51.976;5.660;2024-03-22T05:28:43;32.72;;;13.43;;
34900;SDS011;21112;51.976;5.660;2024-03-22T05:31:10;31.00;;;12.45;;
34900;SDS011;21112;51.976;5.660;2024-03-22T05:33:37;30.75;;;12.13;;
34900;SDS011;21112;51.976;5.660;2024-03-22T05:36:04;29.50;;;12.55;;
34900;SDS011;21112;51.976;5.660;2024-03-22T05:38:30;37.75;;;15.57;;
34900;SDS011;21112;51.976;5.660;2024-03-22T05:40:57;36.20;;;13.00;;
34900;SDS011;21112;51.976;5.660;2024-03-22T05:43:22;33.30;;;11.85;;
34900;SDS011;21112;51.976;5.660;2024-03-22T05:45:49;33.83;;;12.57;;
34900;SDS011;21112;51.976;5.660;2024-03-22T05:48:15;28.98;;;10.85;;
34900;SDS011;21112;51.976;5.660;2024-03-22T05:50:43;32.83;;;11.73;;
34900;SDS011;21112;51.976;5.660;2024-03-22T05:53:09;30.40;;;11.52;;
34900;SDS011;21112;51.976;5.660;2024-03-22T05:55:38;30.92;;;13.18;;
34900;SDS011;21112;51.976;5.660;2024-03-22T05:58:07;30.95;;;11.85;;
34900;SDS011;21112;51.976;5.660;2024-03-22T06:00:34;29.40;;;11.52;;
34900;SDS011;21112;51.976;5.660;2024-03-22T06:03:00;30.95;;;12.07;;
34900;SDS011;21112;51.976;5.660;2024-03-22T06:05:27;26.63;;;10.63;;
34900;SDS011;21112;51.976;5.660;2024-03-22T06:07:57;27.30;;;10.77;;
34900;SDS011;21112;51.976;5.660;2024-03-22T06:10:24;25.60;;;10.65;;
34900;SDS011;21112;51.976;5.660;2024-03-22T06:12:49;33.67;;;12.57;;
34900;SDS011;21112;51.976;5.660;2024-03-22T06:15:16;34.10;;;11.85;;
34900;SDS011;21112;51.976;5.660;2024-03-22T06:17:42;27.17;;;11.10;;
34900;SDS011;21112;51.976;5.660;2024-03-22T06:22:37;32.75;;;11.73;;
34900;SDS011;21112;51.976;5.660;2024-03-22T06:25:05;27.90;;;10.95;;
34900;SDS011;21112;51.976;5.660;2024-03-22T06:27:31;26.20;;;11.33;;
34900;SDS011;21112;51.976;5.660;2024-03-22T06:29:58;28.73;;;11.48;;
34900;SDS011;21112;51.976;5.660;2024-03-22T06:32:23;31.40;;;12.02;;
34900;SDS011;21112;51.976;5.660;2024-03-22T06:34:50;41.88;;;16.05;;
34900;SDS011;21112;51.976;5.660;2024-03-22T06:37:16;24.55;;;10.95;;
34900;SDS011;21112;51.976;5.660;2024-03-22T06:39:43;26.20;;;10.18;;
34900;SDS011;21112;51.976;5.660;2024-03-22T06:42:12;26.00;;;11.45;;
34900;SDS011;21112;51.976;5.660;2024-03-22T06:44:38;28.55;;;11.15;;
34900;SDS011;21112;51.976;5.660;2024-03-22T06:47:04;28.92;;;11.10;;
34900;SDS011;21112;51.976;5.660;2024-03-22T06:49:31;23.88;;;10.32;;
34900;SDS011;21112;51.976;5.660;2024-03-22T06:51:57;27.85;;;10.57;;
34900;SDS011;21112;51.976;5.660;2024-03-22T06:54:24;27.55;;;10.35;;
34900;SDS011;21112;51.976;5.660;2024-03-22T06:56:51;27.45;;;11.15;;
34900;SDS011;21112;51.976;5.660;2024-03-22T06:59:19;30.85;;;10.32;;
34900;SDS011;21112;51.976;5.660;2024-03-22T07:01:45;27.55;;;10.55;;
34900;SDS011;21112;51.976;5.660;2024-03-22T07:04:11;27.10;;;11.32;;
34900;SDS011;21112;51.976;5.660;2024-03-22T07:06:37;26.75;;;11.25;;
34900;SDS011;21112;51.976;5.660;2024-03-22T07:09:04;26.77;;;10.90;;
34900;SDS011;21112;51.976;5.660;2024-03-22T07:11:32;26.35;;;11.35;;
34900;SDS011;21112;51.976;5.660;2024-03-22T07:14:02;29.77;;;11.80;;
34900;SDS011;21112;51.976;5.660;2024-03-22T07:16:29;26.30;;;10.88;;
34900;SDS011;21112;51.976;5.660;2024-03-22T07:18:56;32.75;;;10.90;;
34900;SDS011;21112;51.976;5.660;2024-03-22T07:21:22;30.92;;;10.88;;
34900;SDS011;21112;51.976;5.660;2024-03-22T07:23:49;28.83;;;11.57;;
34900;SDS011;21112;51.976;5.660;2024-03-22T07:26:15;24.20;;;11.13;;
34900;SDS011;21112;51.976;5.660;2024-03-22T07:28:42;27.13;;;11.00;;
34900;SDS011;21112;51.976;5.660;2024-03-22T07:31:08;30.27;;;10.60;;
34900;SDS011;21112;51.976;5.660;2024-03-22T07:33:36;32.58;;;12.82;;
34900;SDS011;21112;51.976;5.660;2024-03-22T07:36:06;25.73;;;10.48;;
34900;SDS011;21112;51.976;5.660;2024-03-22T07:38:33;23.60;;;9.73;;
34900;SDS011;21112;51.976;5.660;2024-03-22T07:40:58;27.17;;;10.93;;
34900;SDS011;21112;51.976;5.660;2024-03-22T07:43:25;25.58;;;10.15;;
34900;SDS011;21112;51.976;5.660;2024-03-22T07:45:51;31.75;;;12.00;;
34900;SDS011;21112;51.976;5.660;2024-03-22T07:48:17;29.15;;;11.02;;
34900;SDS011;21112;51.976;5.660;2024-03-22T07:50:45;27.98;;;11.07;;
34900;SDS011;21112;51.976;5.660;2024-03-22T07:55:39;26.52;;;9.90;;
34900;SDS011;21112;51.976;5.660;2024-03-22T07:58:06;31.30;;;11.75;;
34900;SDS011;21112;51.976;5.660;2024-03-22T08:00:31;27.85;;;10.82;;
34900;SDS011;21112;51.976;5.660;2024-03-22T08:02:58;26.63;;;10.88;;
34900;SDS011;21112;51.976;5.660;2024-03-22T08:05:24;23.88;;;9.38;;
34900;SDS011;21112;51.976;5.660;2024-03-22T08:07:55;32.90;;;11.20;;
34900;SDS011;21112;51.976;5.660;2024-03-22T08:10:21;25.58;;;10.25;;
34900;SDS011;21112;51.976;5.660;2024-03-22T08:12:48;33.28;;;10.18;;
34900;SDS011;21112;51.976;5.660;2024-03-22T08:15:14;30.90;;;11.65;;
34900;SDS011;21112;51.976;5.660;2024-03-22T08:17:41;26.10;;;10.55;;
34900;SDS011;21112;51.976;5.660;2024-03-22T08:20:07;32.97;;;13.13;;
34900;SDS011;21112;51.976;5.660;2024-03-22T08:22:34;27.77;;;11.88;;
34900;SDS011;21112;51.976;5.660;2024-03-22T08:25:01;28.65;;;11.35;;
34900;SDS011;21112;51.976;5.660;2024-03-22T08:27:29;35.83;;;13.95;;
34900;SDS011;21112;51.976;5.660;2024-03-22T08:29:55;31.17;;;11.88;;
34900;SDS011;21112;51.976;5.660;2024-03-22T08:32:21;34.17;;;12.55;;
34900;SDS011;21112;51.976;5.660;2024-03-22T08:34:47;34.85;;;13.27;;
34900;SDS011;21112;51.976;5.660;2024-03-22T08:37:14;32.47;;;13.77;;
34900;SDS011;21112;51.976;5.660;2024-03-22T08:39:40;33.13;;;12.48;;
34900;SDS011;21112;51.976;5.660;2024-03-22T08:42:09;32.88;;;13.98;;
34900;SDS011;21112;51.976;5.660;2024-03-22T08:44:34;31.52;;;11.43;;
34900;SDS011;21112;51.976;5.660;2024-03-22T08:47:01;35.67;;;14.13;;
34900;SDS011;21112;51.976;5.660;2024-03-22T08:49:27;37.95;;;12.93;;
34900;SDS011;21112;51.976;5.660;2024-03-22T08:54:21;31.80;;;12.35;;
34900;SDS011;21112;51.976;5.660;2024-03-22T08:56:48;35.47;;;12.80;;
34900;SDS011;21112;51.976;5.660;2024-03-22T08:59:15;34.45;;;13.60;;
34900;SDS011;21112;51.976;5.660;2024-03-22T09:01:42;34.35;;;13.80;;
34900;SDS011;21112;51.976;5.660;2024-03-22T09:04:07;33.13;;;13.38;;
34900;SDS011;21112;51.976;5.660;2024-03-22T09:06:34;30.10;;;13.38;;
34900;SDS011;21112;51.976;5.660;2024-03-22T09:09:00;36.53;;;13.63;;
34900;SDS011;21112;51.976;5.660;2024-03-22T09:11:28;30.00;;;12.77;;
34900;SDS011;21112;51.976;5.660;2024-03-22T09:13:54;33.22;;;13.32;;
34900;SDS011;21112;51.976;5.660;2024-03-22T09:16:23;34.90;;;15.85;;
34900;SDS011;21112;51.976;5.660;2024-03-22T09:18:48;34.92;;;13.70;;
34900;SDS011;21112;51.976;5.660;2024-03-22T09:21:16;40.15;;;14.00;;
34900;SDS011;21112;51.976;5.660;2024-03-22T09:23:44;36.35;;;14.00;;
34900;SDS011;21112;51.976;5.660;2024-03-22T09:26:11;31.90;;;13.57;;
34900;SDS011;21112;51.976;5.660;2024-03-22T09:28:37;40.80;;;15.32;;
34900;SDS011;21112;51.976;5.660;2024-03-22T09:31:04;36.70;;;14.68;;
34900;SDS011;21112;51.976;5.660;2024-03-22T09:33:33;34.40;;;14.73;;
34900;SDS011;21112;51.976;5.660;2024-03-22T09:36:03;31.50;;;14.27;;
34900;SDS011;21112;51.976;5.660;2024-03-22T09:38:29;38.78;;;14.15;;
34900;SDS011;21112;51.976;5.660;2024-03-22T09:40:56;32.55;;;14.35;;
34900;SDS011;21112;51.976;5.660;2024-03-22T09:43:23;32.88;;;13.55;;
34900;SDS011;21112;51.976;5.660;2024-03-22T09:45:53;29.55;;;12.48;;
34900;SDS011;21112;51.976;5.660;2024-03-22T09:48:20;32.85;;;13.93;;
34900;SDS011;21112;51.976;5.660;2024-03-22T09:50:49;29.55;;;13.00;;
34900;SDS011;21112;51.976;5.660;2024-03-22T09:53:18;32.03;;;13.73;;
34900;SDS011;21112;51.976;5.660;2024-03-22T09:55:46;32.25;;;13.95;;
34900;SDS011;21112;51.976;5.660;2024-03-22T09:58:13;36.80;;;14.50;;
34900;SDS011;21112;51.976;5.660;2024-03-22T10:00:39;40.75;;;14.40;;
34900;SDS011;21112;51.976;5.660;2024-03-22T10:03:05;35.53;;;13.68;;
34900;SDS011;21112;51.976;5.660;2024-03-22T10:05:34;27.98;;;11.40;;
34900;SDS011;21112;51.976;5.660;2024-03-22T10:08:01;30.65;;;13.30;;
34900;SDS011;21112;51.976;5.660;2024-03-22T10:10:31;24.60;;;11.18;;
34900;SDS011;21112;51.976;5.660;2024-03-22T10:12:56;26.55;;;11.73;;
34900;SDS011;21112;51.976;5.660;2024-03-22T10:15:26;28.25;;;10.60;;
34900;SDS011;21112;51.976;5.660;2024-03-22T10:17:51;31.98;;;14.02;;
34900;SDS011;21112;51.976;5.660;2024-03-22T10:20:20;32.83;;;12.30;;
34900;SDS011;21112;51.976;5.660;2024-03-22T10:22:47;21.75;;;10.40;;
34900;SDS011;21112;51.976;5.660;2024-03-22T10:25:16;25.00;;;10.73;;
34900;SDS011;21112;51.976;5.660;2024-03-22T10:27:42;20.52;;;9.00;;
34900;SDS011;21112;51.976;5.660;2024-03-22T10:30:09;24.13;;;9.45;;
34900;SDS011;21112;51.976;5.660;2024-03-22T10:32:37;22.85;;;9.02;;
34900;SDS011;21112;51.976;5.660;2024-03-22T10:35:04;26.20;;;10.10;;
34900;SDS011;21112;51.976;5.660;2024-03-22T10:37:32;25.60;;;9.77;;
34900;SDS011;21112;51.976;5.660;2024-03-22T10:40:00;19.83;;;9.25;;
34900;SDS011;21112;51.976;5.660;2024-03-22T10:42:33;14.18;;;6.45;;
34900;SDS011;21112;51.976;5.660;2024-03-22T10:45:00;20.73;;;9.10;;
34900;SDS011;21112;51.976;5.660;2024-03-22T10:47:26;22.83;;;8.80;;
34900;SDS011;21112;51.976;5.660;2024-03-22T10:49:57;18.48;;;8.40;;
34900;SDS011;21112;51.976;5.660;2024-03-22T10:52:33;17.25;;;8.63;;
34900;SDS011;21112;51.976;5.660;2024-03-22T10:55:07;18.40;;;8.13;;
34900;SDS011;21112;51.976;5.660;2024-03-22T10:57:39;20.02;;;8.10;;
34900;SDS011;21112;51.976;5.660;2024-03-22T11:00:10;20.67;;;7.53;;
34900;SDS011;21112;51.976;5.660;2024-03-22T11:02:38;19.30;;;8.32;;
34900;SDS011;21112;51.976;5.660;2024-03-22T11:05:15;13.50;;;6.40;;
34900;SDS011;21112;51.976;5.660;2024-03-22T11:07:44;15.10;;;6.75;;
34900;SDS011;21112;51.976;5.660;2024-03-22T11:10:14;11.93;;;6.38;;
34900;SDS011;21112;51.976;5.660;2024-03-22T11:12:45;14.45;;;6.53;;
34900;SDS011;21112;51.976;5.660;2024-03-22T11:15:14;16.38;;;6.63;;
34900;SDS011;21112;51.976;5.660;2024-03-22T11:20:12;14.52;;;6.03;;
34900;SDS011;21112;51.976;5.660;2024-03-22T11:22:38;15.40;;;6.17;;
34900;SDS011;21112;51.976;5.660;2024-03-22T11:25:05;12.75;;;6.30;;
34900;SDS011;21112;51.976;5.660;2024-03-22T11:27:39;12.00;;;5.70;;
34900;SDS011;21112;51.976;5.660;2024-03-22T11:30:10;12.30;;;5.55;;
34900;SDS011;21112;51.976;5.660;2024-03-22T11:32:36;11.23;;;5.32;;
34900;SDS011;21112;51.976;5.660;2024-03-22T11:35:09;15.13;;;5.72;;
34900;SDS011;21112;51.976;5.660;2024-03-22T11:37:36;10.77;;;4.95;;
34900;SDS011;21112;51.976;5.660;2024-03-22T11:42:31;9.77;;;4.43;;
34900;SDS011;21112;51.976;5.660;2024-03-22T11:45:00;9.77;;;4.60;;
34900;SDS011;21112;51.976;5.660;2024-03-22T11:47:29;10.00;;;4.85;;
34900;SDS011;21112;51.976;5.660;2024-03-22T11:49:56;11.93;;;4.93;;
34900;SDS011;21112;51.976;5.660;2024-03-22T11:52:23;12.68;;;4.15;;
34900;SDS011;21112;51.976;5.660;2024-03-22T11:54:51;11.30;;;4.43;;
34900;SDS011;21112;51.976;5.660;2024-03-22T11:57:18;10.40;;;4.78;;
34900;SDS011;21112;51.976;5.660;2024-03-22T11:59:45;8.70;;;4.25;;
34900;SDS011;21112;51.976;5.660;2024-03-22T12:02:11;9.23;;;4.30;;
34900;SDS011;21112;51.976;5.660;2024-03-22T12:04:42;11.07;;;4.68;;
34900;SDS011;21112;51.976;5.660;2024-03-22T12:07:10;9.10;;;3.85;;
34900;SDS011;21112;51.976;5.660;2024-03-22T12:09:38;10.35;;;4.60;;
34900;SDS011;21112;51.976;5.660;2024-03-22T12:12:04;6.85;;;3.63;;
34900;SDS011;21112;51.976;5.660;2024-03-22T12:14:34;10.05;;;4.47;;
34900;SDS011;21112;51.976;5.660;2024-03-22T12:17:01;7.90;;;3.72;;
34900;SDS011;21112;51.976;5.660;2024-03-22T12:19:31;7.43;;;3.80;;
34900;SDS011;21112;51.976;5.660;2024-03-22T12:21:59;7.35;;;3.95;;
34900;SDS011;21112;51.976;5.660;2024-03-22T12:24:26;8.25;;;3.97;;
34900;SDS011;21112;51.976;5.660;2024-03-22T12:26:52;10.38;;;5.00;;
34900;SDS011;21112;51.976;5.660;2024-03-22T12:29:20;9.77;;;3.80;;
34900;SDS011;21112;51.976;5.660;2024-03-22T12:31:46;10.07;;;3.78;;
34900;SDS011;21112;51.976;5.660;2024-03-22T12:34:13;7.97;;;3.65;;
34900;SDS011;21112;51.976;5.660;2024-03-22T12:36:42;7.38;;;3.08;;
34900;SDS011;21112;51.976;5.660;2024-03-22T12:39:11;7.55;;;3.50;;
34900;SDS011;21112;51.976;5.660;2024-03-22T12:41:37;7.18;;;3.05;;
34900;SDS011;21112;51.976;5.660;2024-03-22T12:44:08;6.95;;;3.53;;
34900;SDS011;21112;51.976;5.660;2024-03-22T12:46:34;7.68;;;2.90;;
34900;SDS011;21112;51.976;5.660;2024-03-22T12:49:01;6.72;;;3.08;;
34900;SDS011;21112;51.976;5.660;2024-03-22T12:51:27;6.72;;;3.17;;
34900;SDS011;21112;51.976;5.660;2024-03-22T12:53:54;7.22;;;3.08;;
34900;SDS011;21112;51.976;5.660;2024-03-22T12:56:22;9.43;;;3.88;;
34900;SDS011;21112;51.976;5.660;2024-03-22T12:58:49;7.53;;;3.47;;
34900;SDS011;21112;51.976;5.660;2024-03-22T13:01:15;7.68;;;3.40;;
34900;SDS011;21112;51.976;5.660;2024-03-22T13:03:43;7.75;;;3.40;;
34900;SDS011;21112;51.976;5.660;2024-03-22T13:06:10;6.57;;;3.05;;
34900;SDS011;21112;51.976;5.660;2024-03-22T13:08:36;9.48;;;3.88;;
34900;SDS011;21112;51.976;5.660;2024-03-22T13:11:04;8.05;;;3.03;;
34900;SDS011;21112;51.976;5.660;2024-03-22T13:13:31;3.28;;;1.80;;
34900;SDS011;21112;51.976;5.660;2024-03-22T13:16:01;4.15;;;1.92;;
34900;SDS011;21112;51.976;5.660;2024-03-22T13:18:32;4.13;;;2.28;;
34900;SDS011;21112;51.976;5.660;2024-03-22T13:21:01;6.22;;;2.78;;
34900;SDS011;21112;51.976;5.660;2024-03-22T13:23:28;4.82;;;2.28;;
34900;SDS011;21112;51.976;5.660;2024-03-22T13:25:55;4.82;;;2.17;;
34900;SDS011;21112;51.976;5.660;2024-03-22T13:28:23;3.35;;;1.95;;
34900;SDS011;21112;51.976;5.660;2024-03-22T13:31:00;4.37;;;2.10;;
34900;SDS011;21112;51.976;5.660;2024-03-22T13:33:28;6.88;;;2.38;;
34900;SDS011;21112;51.976;5.660;2024-03-22T13:35:55;5.00;;;2.38;;
34900;SDS011;21112;51.976;5.660;2024-03-22T13:38:21;7.45;;;2.45;;
34900;SDS011;21112;51.976;5.660;2024-03-22T13:40:57;5.22;;;2.38;;
34900;SDS011;21112;51.976;5.660;2024-03-22T13:43:25;5.68;;;2.42;;
34900;SDS011;21112;51.976;5.660;2024-03-22T13:45:52;5.63;;;2.70;;
34900;SDS011;21112;51.976;5.660;2024-03-22T13:48:22;8.60;;;3.05;;
34900;SDS011;21112;51.976;5.660;2024-03-22T13:50:50;7.97;;;3.10;;
34900;SDS011;21112;51.976;5.660;2024-03-22T13:53:17;7.00;;;3.53;;
34900;SDS011;21112;51.976;5.660;2024-03-22T13:55:44;10.52;;;3.50;;
34900;SDS011;21112;51.976;5.660;2024-03-22T13:58:14;7.38;;;3.28;;
34900;SDS011;21112;51.976;5.660;2024-03-22T14:00:41;7.18;;;3.20;;
34900;SDS011;21112;51.976;5.660;2024-03-22T14:03:07;9.65;;;3.60;;
34900;SDS011;21112;51.976;5.660;2024-03-22T14:05:37;8.00;;;2.85;;
34900;SDS011;21112;51.976;5.660;2024-03-22T14:08:04;9.93;;;2.78;;
34900;SDS011;21112;51.976;5.660;2024-03-22T14:10:32;8.77;;;2.53;;
34900;SDS011;21112;51.976;5.660;2024-03-22T14:12:58;5.53;;;2.17;;
34900;SDS011;21112;51.976;5.660;2024-03-22T14:15:26;5.97;;;2.45;;
34900;SDS011;21112;51.976;5.660;2024-03-22T14:17:56;7.93;;;2.40;;
34900;SDS011;21112;51.976;5.660;2024-03-22T14:20:24;6.22;;;2.20;;
34900;SDS011;21112;51.976;5.660;2024-03-22T14:22:53;7.97;;;2.88;;
34900;SDS011;21112;51.976;5.660;2024-03-22T14:25:20;7.55;;;3.05;;
34900;SDS011;21112;51.976;5.660;2024-03-22T14:27:47;11.32;;;2.80;;
34900;SDS011;21112;51.976;5.660;2024-03-22T14:30:14;7.50;;;2.60;;
34900;SDS011;21112;51.976;5.660;2024-03-22T14:32:40;10.55;;;2.72;;
34900;SDS011;21112;51.976;5.660;2024-03-22T14:35:10;8.00;;;2.85;;
34900;SDS011;21112;51.976;5.660;2024-03-22T14:37:38;6.85;;;2.08;;
34900;SDS011;21112;51.976;5.660;2024-03-22T14:40:07;9.40;;;2.58;;
34900;SDS011;21112;51.976;5.660;2024-03-22T14:42:35;5.57;;;2.17;;
34900;SDS011;21112;51.976;5.660;2024-03-22T14:45:05;10.02;;;2.53;;